Time;durP1;ratioP1;P1;durP2;ratioP2;P2;SDS_P1;SDS_P2;PMS_P1;PMS_P2;Temp;Humidity;BMP_temperature;BMP_pressure;BME280_temperature;BME280_humidity;BME280_pressure;Samples;Min_cycle;Max_cycle;Signal;HPM_P1;HPM_P2
2023/10/22 00:01:53;;;;;;;11.70;6.70;;;;;;;;;;5035740;28;20056;-77
2023/10/22 00:04:18;;;;;;;11.18;6.68;;;;;;;;;;5036415;28;20035;-76
2023/10/22 00:06:43;;;;;;;9.68;6.75;;;;;;;;;;5037074;28;20090;-77
2023/10/22 00:09:09;;;;;;;10.98;6.78;;;;;;;;;;5037006;28;20373;-77
2023/10/22 00:11:34;;;;;;;9.95;6.28;;;;;;;;;;5054819;28;20039;-77
2023/10/22 00:13:59;;;;;;;14.57;6.30;;;;;;;;;;5036401;28;20028;-77
2023/10/22 00:16:25;;;;;;;9.82;6.47;;;;;;;;;;5054692;28;20025;-77
2023/10/22 00:18:50;;;;;;;9.80;6.30;;;;;;;;;;5054742;28;20092;-77
2023/10/22 00:21:15;;;;;;;10.73;6.05;;;;;;;;;;5037217;28;20056;-77
2023/10/22 00:23:41;;;;;;;9.95;6.68;;;;;;;;;;5036683;28;20474;-77
2023/10/22 00:26:12;;;;;;;14.10;6.78;;;;;;;;;;5054165;28;20033;-76
2023/10/22 00:28:37;;;;;;;11.05;6.20;;;;;;;;;;5037015;28;20020;-78
2023/10/22 00:31:03;;;;;;;9.90;6.60;;;;;;;;;;5037375;28;20028;-77
2023/10/22 00:33:28;;;;;;;10.20;6.60;;;;;;;;;;5036783;28;20028;-78
2023/10/22 00:35:58;;;;;;;11.18;5.80;;;;;;;;;;5037612;28;20021;-77
2023/10/22 00:38:24;;;;;;;9.30;5.93;;;;;;;;;;5036200;28;20028;-77
2023/10/22 00:40:49;;;;;;;8.05;5.75;;;;;;;;;;5036714;28;20021;-77
2023/10/22 00:43:14;;;;;;;9.77;5.57;;;;;;;;;;5036778;28;20035;-78
2023/10/22 00:45:40;;;;;;;10.88;6.15;;;;;;;;;;5036464;28;20020;-78
2023/10/22 00:48:07;;;;;;;9.70;6.38;;;;;;;;;;5039488;28;20025;-78
2023/10/22 00:50:33;;;;;;;8.07;5.82;;;;;;;;;;5053695;28;20031;-78
2023/10/22 00:52:59;;;;;;;8.13;5.72;;;;;;;;;;5053439;28;20013;-77
2023/10/22 00:55:24;;;;;;;12.13;5.88;;;;;;;;;;5035163;28;20021;-77
2023/10/22 00:57:49;;;;;;;10.75;5.80;;;;;;;;;;5035389;28;20028;-77
2023/10/22 01:00:16;;;;;;;8.80;6.05;;;;;;;;;;5053476;28;20029;-77
2023/10/22 01:02:41;;;;;;;9.93;6.40;;;;;;;;;;5035306;28;20025;-77
2023/10/22 01:05:08;;;;;;;9.15;6.00;;;;;;;;;;5053088;28;20039;-77
2023/10/22 01:07:33;;;;;;;10.60;6.00;;;;;;;;;;5035155;28;20179;-77
2023/10/22 01:09:59;;;;;;;10.30;5.82;;;;;;;;;;5035312;28;20443;-77
2023/10/22 01:12:32;;;;;;;9.98;6.20;;;;;;;;;;5035223;28;20094;-76
2023/10/22 01:14:58;;;;;;;9.00;6.10;;;;;;;;;;5037002;28;20027;-78
2023/10/22 01:17:23;;;;;;;10.88;5.90;;;;;;;;;;5040141;28;20021;-77
2023/10/22 01:19:48;;;;;;;7.57;5.22;;;;;;;;;;5057184;28;20414;-77
2023/10/22 01:22:13;;;;;;;6.97;5.20;;;;;;;;;;5053105;28;20062;-77
2023/10/22 01:24:39;;;;;;;9.02;5.38;;;;;;;;;;5052841;28;20391;-77
2023/10/22 01:27:04;;;;;;;7.97;5.50;;;;;;;;;;5038929;28;20025;-77
2023/10/22 01:29:29;;;;;;;8.55;5.32;;;;;;;;;;5057070;28;20025;-77
2023/10/22 01:31:55;;;;;;;7.35;5.18;;;;;;;;;;5039120;28;20024;-77
2023/10/22 01:34:20;;;;;;;6.95;4.95;;;;;;;;;;5039049;28;20051;-77
2023/10/22 01:36:45;;;;;;;9.05;5.35;;;;;;;;;;5056820;28;20115;-77
2023/10/22 01:39:14;;;;;;;10.38;5.72;;;;;;;;;;5056807;28;20021;-77
2023/10/22 01:41:41;;;;;;;6.30;4.53;;;;;;;;;;5038790;28;20017;-76
2023/10/22 01:44:06;;;;;;;7.35;4.55;;;;;;;;;;5038891;28;20112;-77
2023/10/22 01:46:32;;;;;;;6.43;4.07;;;;;;;;;;5056706;28;20155;-76
2023/10/22 01:48:57;;;;;;;6.97;4.70;;;;;;;;;;5056630;28;20072;-76
2023/10/22 01:51:23;;;;;;;8.23;4.60;;;;;;;;;;5056594;28;20028;-77
2023/10/22 01:53:48;;;;;;;6.25;3.72;;;;;;;;;;5056895;28;20027;-77
2023/10/22 01:56:14;;;;;;;5.60;4.10;;;;;;;;;;5056768;28;20456;-77
2023/10/22 01:58:40;;;;;;;8.10;4.10;;;;;;;;;;5058054;28;20463;-76
2023/10/22 02:01:06;;;;;;;6.22;4.40;;;;;;;;;;5059206;28;20036;-77
2023/10/22 02:03:34;;;;;;;6.00;4.20;;;;;;;;;;5057357;28;20020;-77
2023/10/22 02:06:00;;;;;;;9.07;4.40;;;;;;;;;;5038661;28;20067;-77
2023/10/22 02:08:25;;;;;;;7.30;4.10;;;;;;;;;;5056238;28;20017;-77
2023/10/22 02:10:50;;;;;;;8.33;4.43;;;;;;;;;;5056583;28;20329;-77
2023/10/22 02:13:15;;;;;;;21.02;4.88;;;;;;;;;;5056222;28;20262;-77
2023/10/22 02:15:40;;;;;;;7.88;3.95;;;;;;;;;;5058954;28;20028;-77
2023/10/22 02:18:06;;;;;;;7.30;4.00;;;;;;;;;;5058087;28;20103;-77
2023/10/22 02:20:31;;;;;;;5.90;4.07;;;;;;;;;;5056007;28;20273;-77
2023/10/22 02:22:57;;;;;;;14.02;3.85;;;;;;;;;;5057085;28;20025;-77
2023/10/22 02:25:22;;;;;;;12.50;4.00;;;;;;;;;;5056192;28;20033;-77
2023/10/22 02:27:48;;;;;;;7.47;3.90;;;;;;;;;;5055779;28;20043;-77
2023/10/22 02:30:13;;;;;;;12.77;3.50;;;;;;;;;;5037939;28;20338;-77
2023/10/22 02:32:38;;;;;;;5.43;3.70;;;;;;;;;;5055904;28;20028;-77
2023/10/22 02:35:04;;;;;;;5.78;3.70;;;;;;;;;;5037799;28;20048;-77
2023/10/22 02:37:29;;;;;;;5.07;3.25;;;;;;;;;;5055635;28;20548;-77
2023/10/22 02:39:55;;;;;;;4.25;3.13;;;;;;;;;;5038112;28;20021;-76
2023/10/22 02:42:20;;;;;;;5.78;3.50;;;;;;;;;;5037772;28;20060;-76
2023/10/22 02:44:45;;;;;;;4.53;3.20;;;;;;;;;;5056371;28;20349;-77
2023/10/22 02:47:10;;;;;;;4.53;2.90;;;;;;;;;;5060137;28;20245;-76
2023/10/22 02:49:36;;;;;;;5.63;3.00;;;;;;;;;;5040004;28;20021;-77
2023/10/22 02:52:02;;;;;;;5.35;2.70;;;;;;;;;;5057337;28;20257;-78
2023/10/22 02:54:27;;;;;;;4.22;3.17;;;;;;;;;;5059339;28;20027;-77
2023/10/22 02:56:52;;;;;;;4.03;2.70;;;;;;;;;;5057686;28;20017;-77
2023/10/22 02:59:18;;;;;;;3.83;2.70;;;;;;;;;;5056373;28;20468;-77
2023/10/22 03:01:43;;;;;;;4.00;2.80;;;;;;;;;;5057770;28;20632;-77
2023/10/22 03:04:08;;;;;;;4.22;2.53;;;;;;;;;;5040481;28;20024;-78
2023/10/22 03:06:34;;;;;;;4.95;2.38;;;;;;;;;;5060008;28;20067;-78
2023/10/22 03:08:59;;;;;;;4.35;2.45;;;;;;;;;;5060733;28;20070;-77
2023/10/22 03:11:24;;;;;;;3.50;2.40;;;;;;;;;;5062556;28;20044;-79
2023/10/22 03:13:50;;;;;;;4.63;2.70;;;;;;;;;;5044294;28;20017;-77
2023/10/22 03:16:15;;;;;;;5.03;2.03;;;;;;;;;;5043899;28;20064;-78
2023/10/22 03:18:42;;;;;;;5.03;2.35;;;;;;;;;;5043427;28;20067;-78
2023/10/22 03:21:11;;;;;;;2.65;2.20;;;;;;;;;;5059793;28;20099;-77
2023/10/22 03:23:41;;;;;;;4.82;2.00;;;;;;;;;;5059315;28;20031;-78
2023/10/22 03:26:11;;;;;;;3.58;2.30;;;;;;;;;;5058113;28;20024;-78
2023/10/22 03:28:37;;;;;;;3.13;1.92;;;;;;;;;;5040758;28;20050;-78
2023/10/22 03:31:03;;;;;;;5.65;2.20;;;;;;;;;;5057131;28;20029;-78
2023/10/22 03:33:29;;;;;;;4.00;1.92;;;;;;;;;;5058594;28;20025;-78
2023/10/22 03:35:54;;;;;;;6.35;2.13;;;;;;;;;;5058318;28;20017;-78
2023/10/22 03:38:20;;;;;;;2.88;2.00;;;;;;;;;;5039989;28;20047;-77
2023/10/22 03:40:45;;;;;;;3.13;2.10;;;;;;;;;;5057742;28;20013;-78
2023/10/22 03:43:10;;;;;;;2.75;2.08;;;;;;;;;;5055929;28;20017;-77
2023/10/22 03:45:35;;;;;;;4.10;1.95;;;;;;;;;;5055590;28;20019;-78
2023/10/22 03:48:01;;;;;;;5.20;2.25;;;;;;;;;;5055000;28;20020;-77
2023/10/22 03:50:26;;;;;;;2.63;2.00;;;;;;;;;;5056834;28;20017;-78
2023/10/22 03:52:51;;;;;;;2.78;2.20;;;;;;;;;;5055174;28;20063;-77
2023/10/22 03:55:17;;;;;;;3.08;1.98;;;;;;;;;;5039332;28;20021;-78
2023/10/22 03:57:42;;;;;;;6.95;2.05;;;;;;;;;;5055073;28;20025;-77
2023/10/22 04:00:07;;;;;;;3.00;2.05;;;;;;;;;;5038004;28;20480;-77
2023/10/22 04:02:33;;;;;;;1.90;1.70;;;;;;;;;;5056270;28;20013;-78
2023/10/22 04:04:58;;;;;;;2.72;1.80;;;;;;;;;;5037565;28;20086;-76
2023/10/22 04:07:23;;;;;;;3.45;1.90;;;;;;;;;;5056331;28;20032;-76
2023/10/22 04:09:49;;;;;;;2.85;1.85;;;;;;;;;;5055615;28;20021;-77
2023/10/22 04:12:14;;;;;;;3.42;2.08;;;;;;;;;;5037183;28;20050;-77
2023/10/22 04:14:39;;;;;;;7.07;2.00;;;;;;;;;;5037183;28;20048;-77
2023/10/22 04:17:05;;;;;;;4.13;2.47;;;;;;;;;;5055247;28;20025;-77
2023/10/22 04:19:30;;;;;;;4.13;2.42;;;;;;;;;;5037971;28;20471;-77
2023/10/22 04:21:55;;;;;;;4.45;2.30;;;;;;;;;;5055229;28;20526;-77
2023/10/22 04:24:20;;;;;;;2.83;2.00;;;;;;;;;;5055445;28;20043;-77
2023/10/22 04:26:46;;;;;;;5.50;2.60;;;;;;;;;;5038833;28;20020;-78
2023/10/22 04:29:11;;;;;;;6.82;2.70;;;;;;;;;;5059718;28;20024;-78
2023/10/22 04:31:36;;;;;;;2.80;2.47;;;;;;;;;;5056561;28;20410;-78
2023/10/22 04:34:01;;;;;;;4.57;3.13;;;;;;;;;;5039688;28;20372;-77
2023/10/22 04:36:27;;;;;;;4.90;2.60;;;;;;;;;;5059124;28;20104;-78
2023/10/22 04:38:52;;;;;;;5.47;3.43;;;;;;;;;;5039364;28;20023;-78
2023/10/22 04:41:18;;;;;;;3.53;2.45;;;;;;;;;;5056130;28;20779;-78
2023/10/22 04:43:43;;;;;;;4.43;2.80;;;;;;;;;;5055850;28;20024;-78
2023/10/22 04:46:08;;;;;;;5.25;2.40;;;;;;;;;;5056689;28;20281;-77
2023/10/22 04:48:34;;;;;;;5.82;2.83;;;;;;;;;;5055921;28;20044;-78
2023/10/22 04:51:06;;;;;;;3.85;2.53;;;;;;;;;;5037488;28;20029;-78
2023/10/22 04:53:34;;;;;;;4.78;2.35;;;;;;;;;;5054887;28;20476;-77
2023/10/22 04:56:00;;;;;;;4.47;2.70;;;;;;;;;;5054820;28;20415;-77
2023/10/22 04:58:27;;;;;;;4.57;2.75;;;;;;;;;;5055571;28;20048;-77
2023/10/22 05:00:53;;;;;;;3.83;2.40;;;;;;;;;;5036578;28;20017;-77
2023/10/22 05:03:18;;;;;;;2.60;2.22;;;;;;;;;;5038546;28;20035;-77
2023/10/22 05:05:43;;;;;;;4.25;2.47;;;;;;;;;;5058391;28;20016;-77
2023/10/22 05:08:09;;;;;;;3.17;2.43;;;;;;;;;;5040560;28;20067;-77
2023/10/22 05:10:40;;;;;;;5.43;2.80;;;;;;;;;;5058367;28;20257;-77
2023/10/22 05:13:08;;;;;;;3.60;2.58;;;;;;;;;;5040473;28;20033;-77
2023/10/22 05:15:33;;;;;;;3.78;2.63;;;;;;;;;;5058279;28;20052;-77
2023/10/22 05:17:59;;;;;;;4.50;2.70;;;;;;;;;;5058462;28;20013;-76
2023/10/22 05:20:34;;;;;;;4.45;2.53;;;;;;;;;;5058820;28;20063;-76
2023/10/22 05:23:01;;;;;;;4.22;2.47;;;;;;;;;;5040829;28;20029;-77
2023/10/22 05:25:28;;;;;;;3.70;2.50;;;;;;;;;;5058116;28;20033;-78
2023/10/22 05:27:53;;;;;;;7.43;3.90;;;;;;;;;;5040566;28;20167;-79
2023/10/22 05:30:18;;;;;;;7.25;2.63;;;;;;;;;;5040391;28;20490;-77
2023/10/22 05:32:44;;;;;;;4.93;2.92;;;;;;;;;;5058536;28;20029;-78
2023/10/22 05:35:09;;;;;;;6.23;3.37;;;;;;;;;;5040378;28;20016;-77
2023/10/22 05:37:34;;;;;;;4.83;3.00;;;;;;;;;;5057008;28;20360;-78
2023/10/22 05:40:00;;;;;;;3.40;2.28;;;;;;;;;;5058805;28;20265;-77
2023/10/22 05:42:25;;;;;;;5.00;2.47;;;;;;;;;;5059234;28;20021;-78
2023/10/22 05:44:51;;;;;;;4.32;2.08;;;;;;;;;;5056987;28;20024;-77
2023/10/22 05:47:16;;;;;;;4.75;2.03;;;;;;;;;;5056503;28;20054;-78
2023/10/22 05:49:41;;;;;;;5.30;2.30;;;;;;;;;;5057304;28;20024;-76
2023/10/22 05:52:07;;;;;;;3.10;2.00;;;;;;;;;;5057540;28;20031;-77
2023/10/22 05:59:51;;;;;;;3.42;2.10;;;;;;;;;;1510484;26;20044;-77
2023/10/22 06:02:24;;;;;;;2.97;1.92;;;;;;;;;;5056909;28;20148;-78
2023/10/22 06:04:50;;;;;;;;;;;;;;;;;;5055884;28;20496;-77
2023/10/22 06:07:15;;;;;;;2.30;1.70;;;;;;;;;;5058020;28;19955;-78
2023/10/22 06:09:40;;;;;;;2.40;2.08;;;;;;;;;;5058030;28;20281;-78
2023/10/22 06:12:07;;;;;;;3.08;2.08;;;;;;;;;;5060416;28;20048;-77
2023/10/22 06:14:33;;;;;;;2.38;1.67;;;;;;;;;;5062004;28;20028;-77
2023/10/22 06:16:58;;;;;;;3.67;1.98;;;;;;;;;;5057803;28;20024;-76
2023/10/22 06:19:23;;;;;;;4.72;2.00;;;;;;;;;;5058312;28;20019;-75
2023/10/22 06:21:48;;;;;;;2.67;1.83;;;;;;;;;;5059139;28;20043;-76
2023/10/22 06:24:14;;;;;;;4.10;2.47;;;;;;;;;;5061469;28;20250;-77
2023/10/22 06:26:40;;;;;;;3.17;2.10;;;;;;;;;;5061315;28;20398;-76
2023/10/22 06:29:05;;;;;;;3.55;2.28;;;;;;;;;;5040847;28;20028;-76
2023/10/22 06:31:30;;;;;;;2.65;2.15;;;;;;;;;;5058359;28;20021;-78
2023/10/22 06:33:56;;;;;;;4.47;2.42;;;;;;;;;;5060701;28;20021;-77
2023/10/22 06:36:22;;;;;;;4.25;2.50;;;;;;;;;;5060857;28;20016;-78
2023/10/22 06:38:48;;;;;;;3.85;2.45;;;;;;;;;;5040721;28;20012;-76
2023/10/22 06:41:21;;;;;;;3.15;2.30;;;;;;;;;;5057008;28;20468;-77
2023/10/22 06:43:47;;;;;;;4.30;2.60;;;;;;;;;;5057121;28;20055;-77
2023/10/22 06:46:13;;;;;;;2.35;1.88;;;;;;;;;;5057779;28;20017;-77
2023/10/22 06:48:39;;;;;;;2.47;2.00;;;;;;;;;;5059810;28;20076;-77
2023/10/22 06:51:09;;;;;;;4.00;1.92;;;;;;;;;;5042341;28;20047;-78
2023/10/22 06:53:34;;;;;;;2.78;2.10;;;;;;;;;;5041537;28;20388;-76
2023/10/22 06:56:02;;;;;;;4.00;2.20;;;;;;;;;;5041771;28;20013;-78
2023/10/22 06:58:27;;;;;;;4.05;2.20;;;;;;;;;;5042387;28;20119;-77
2023/10/22 07:01:03;;;;;;;6.45;2.70;;;;;;;;;;5060313;28;20029;-78
2023/10/22 07:03:28;;;;;;;5.25;3.08;;;;;;;;;;5061356;28;20022;-78
2023/10/22 07:05:53;;;;;;;3.53;2.70;;;;;;;;;;5059677;28;20035;-78
2023/10/22 07:08:18;;;;;;;4.17;2.83;;;;;;;;;;5059662;28;20021;-78
2023/10/22 07:10:44;;;;;;;5.20;3.45;;;;;;;;;;5059726;28;20790;-78
2023/10/22 07:13:09;;;;;;;5.55;3.67;;;;;;;;;;5060359;28;20060;-78
2023/10/22 07:15:34;;;;;;;5.18;3.50;;;;;;;;;;5041901;28;20032;-76
2023/10/22 07:17:59;;;;;;;3.65;2.80;;;;;;;;;;5040734;28;20048;-78
2023/10/22 07:20:25;;;;;;;6.18;2.63;;;;;;;;;;5059743;28;20017;-77
2023/10/22 07:22:50;;;;;;;5.00;2.78;;;;;;;;;;5059270;28;20044;-78
2023/10/22 07:25:16;;;;;;;4.57;2.53;;;;;;;;;;5043007;28;20040;-79
2023/10/22 07:27:41;;;;;;;5.43;2.90;;;;;;;;;;5059729;28;20096;-76
2023/10/22 07:30:07;;;;;;;4.55;2.30;;;;;;;;;;5057775;28;20020;-75
2023/10/22 07:32:32;;;;;;;3.10;2.25;;;;;;;;;;5039537;28;20037;-76
2023/10/22 07:34:58;;;;;;;3.22;2.25;;;;;;;;;;5060470;28;20092;-77
2023/10/22 07:37:23;;;;;;;2.75;2.13;;;;;;;;;;5040135;28;20053;-78
2023/10/22 07:39:48;;;;;;;2.72;2.20;;;;;;;;;;5041071;28;20040;-78
2023/10/22 07:42:13;;;;;;;3.58;2.05;;;;;;;;;;5059701;28;20017;-76
2023/10/22 07:44:39;;;;;;;3.78;2.30;;;;;;;;;;5058936;28;20028;-77
2023/10/22 07:47:04;;;;;;;2.70;2.25;;;;;;;;;;5056684;28;20020;-77
2023/10/22 07:49:29;;;;;;;2.65;1.95;;;;;;;;;;5038443;28;20016;-77
2023/10/22 07:51:55;;;;;;;2.45;2.00;;;;;;;;;;5039950;28;20063;-78
2023/10/22 07:54:20;;;;;;;9.43;5.13;;;;;;;;;;5059146;28;20037;-78
2023/10/22 07:56:45;;;;;;;2.92;2.20;;;;;;;;;;5058030;28;20047;-78
2023/10/22 07:59:10;;;;;;;2.88;1.88;;;;;;;;;;5040140;28;20506;-78
2023/10/22 08:01:36;;;;;;;4.78;1.92;;;;;;;;;;5039528;28;20051;-78
2023/10/22 08:04:01;;;;;;;2.30;1.73;;;;;;;;;;5039382;28;20513;-78
2023/10/22 08:06:26;;;;;;;2.40;1.67;;;;;;;;;;5056933;28;20017;-77
2023/10/22 08:08:54;;;;;;;4.05;1.33;;;;;;;;;;5038652;28;20028;-78
2023/10/22 08:11:20;;;;;;;2.63;1.58;;;;;;;;;;5040481;28;20031;-78
2023/10/22 08:13:45;;;;;;;2.00;1.50;;;;;;;;;;5041353;28;20060;-78
2023/10/22 08:16:12;;;;;;;2.90;1.50;;;;;;;;;;5059234;28;20031;-78
2023/10/22 08:18:37;;;;;;;3.47;1.30;;;;;;;;;;5041968;28;20390;-77
2023/10/22 08:21:03;;;;;;;1.40;1.20;;;;;;;;;;5039921;28;20060;-77
2023/10/22 08:23:31;;;;;;;1.63;1.20;;;;;;;;;;5059015;28;20586;-77
2023/10/22 08:25:57;;;;;;;3.92;1.55;;;;;;;;;;5038557;28;20049;-76
2023/10/22 08:28:22;;;;;;;3.67;1.70;;;;;;;;;;5037483;28;20024;-79
2023/10/22 08:30:48;;;;;;;2.70;1.25;;;;;;;;;;5037719;28;20464;-76
2023/10/22 08:33:14;;;;;;;3.38;1.52;;;;;;;;;;5037944;28;20054;-76
2023/10/22 08:35:40;;;;;;;3.05;1.50;;;;;;;;;;5055364;28;20033;-79
2023/10/22 08:38:06;;;;;;;3.67;1.70;;;;;;;;;;5037072;28;20079;-77
2023/10/22 08:40:36;;;;;;;4.43;1.95;;;;;;;;;;5036770;28;20031;-77
2023/10/22 08:43:01;;;;;;;3.15;1.30;;;;;;;;;;5057445;28;20031;-78
2023/10/22 08:45:27;;;;;;;2.55;1.20;;;;;;;;;;5056026;28;20056;-77
2023/10/22 08:47:52;;;;;;;4.15;1.80;;;;;;;;;;5036437;28;20384;-76
2023/10/22 08:50:18;;;;;;;1.92;1.10;;;;;;;;;;5038199;28;20049;-76
2023/10/22 08:52:43;;;;;;;1.52;1.00;;;;;;;;;;5058238;28;20021;-78
2023/10/22 08:55:09;;;;;;;2.05;1.08;;;;;;;;;;5040607;28;20021;-78
2023/10/22 08:57:35;;;;;;;3.25;1.30;;;;;;;;;;5059222;28;20035;-77
2023/10/22 09:00:01;;;;;;;2.60;0.90;;;;;;;;;;5040219;28;20044;-77
2023/10/22 09:02:27;;;;;;;4.47;1.15;;;;;;;;;;5058467;28;20020;-77
2023/10/22 09:04:58;;;;;;;1.90;0.90;;;;;;;;;;5056175;28;20032;-77
2023/10/22 09:07:49;;;;;;;2.78;1.10;;;;;;;;;;5056832;28;20383;-78
2023/10/22 09:10:30;;;;;;;4.70;1.10;;;;;;;;;;5040326;28;20021;-77
2023/10/22 09:13:12;;;;;;;3.78;1.48;;;;;;;;;;5058371;28;20091;-76
2023/10/22 09:15:46;;;;;;;4.88;1.17;;;;;;;;;;5058610;28;20025;-75
2023/10/22 09:18:13;;;;;;;3.10;0.90;;;;;;;;;;5040026;28;20052;-79
2023/10/22 09:20:39;;;;;;;3.28;0.90;;;;;;;;;;5058019;28;20020;-77
2023/10/22 09:23:18;;;;;;;2.60;1.20;;;;;;;;;;5055430;28;20096;-77
2023/10/22 09:25:48;;;;;;;3.72;1.00;;;;;;;;;;5035763;28;20414;-74
2023/10/22 09:28:20;;;;;;;2.83;1.15;;;;;;;;;;5035247;28;20029;-76
2023/10/22 09:30:47;;;;;;;2.35;1.00;;;;;;;;;;5034148;28;20025;-81
2023/10/22 09:33:19;;;;;;;2.80;1.00;;;;;;;;;;5035132;28;20547;-78
2023/10/22 09:36:07;;;;;;;2.15;1.00;;;;;;;;;;5036614;28;20024;-83
2023/10/22 09:38:47;;;;;;;4.45;1.10;;;;;;;;;;5054908;28;20443;-78
2023/10/22 09:41:18;;;;;;;2.10;0.90;;;;;;;;;;5037361;28;20108;-78
2023/10/22 09:43:43;;;;;;;5.43;1.02;;;;;;;;;;5039291;28;20021;-78
2023/10/22 09:46:09;;;;;;;1.98;0.95;;;;;;;;;;5057653;28;20079;-78
2023/10/22 09:48:35;;;;;;;3.95;0.90;;;;;;;;;;5041255;28;20072;-84
2023/10/22 09:51:04;;;;;;;3.55;0.70;;;;;;;;;;5041967;28;20024;-77
2023/10/22 09:53:30;;;;;;;2.97;0.90;;;;;;;;;;5040276;28;20206;-76
2023/10/22 09:55:56;;;;;;;6.05;1.23;;;;;;;;;;5040435;28;20028;-77
2023/10/22 09:58:29;;;;;;;3.90;1.00;;;;;;;;;;5039592;28;20025;-77
2023/10/22 10:00:55;;;;;;;3.45;0.93;;;;;;;;;;5057272;28;20602;-76
2023/10/22 10:03:21;;;;;;;4.25;1.00;;;;;;;;;;5041322;28;20035;-76
2023/10/22 10:05:47;;;;;;;2.88;0.90;;;;;;;;;;5041028;28;20100;-77
2023/10/22 10:08:14;;;;;;;4.10;0.70;;;;;;;;;;5041133;28;20013;-76
2023/10/22 10:10:40;;;;;;;2.10;0.90;;;;;;;;;;5041822;28;20031;-75
2023/10/22 10:13:05;;;;;;;4.00;1.08;;;;;;;;;;5041632;28;20447;-77
2023/10/22 10:15:35;;;;;;;4.38;0.80;;;;;;;;;;5059391;28;20021;-78
2023/10/22 10:18:06;;;;;;;5.65;0.93;;;;;;;;;;5041290;28;20033;-76
2023/10/22 10:20:31;;;;;;;2.70;0.80;;;;;;;;;;5059122;28;20017;-76
2023/10/22 10:23:18;;;;;;;3.33;0.90;;;;;;;;;;5040883;28;20032;-76
2023/10/22 10:25:44;;;;;;;3.45;1.00;;;;;;;;;;5041562;28;20021;-76
2023/10/22 10:28:10;;;;;;;2.42;0.85;;;;;;;;;;5059067;28;20021;-76
2023/10/22 10:30:36;;;;;;;2.13;0.90;;;;;;;;;;5041192;28;20013;-76
2023/10/22 10:33:02;;;;;;;6.20;0.90;;;;;;;;;;5040864;28;20116;-76
2023/10/22 10:35:28;;;;;;;4.97;1.10;;;;;;;;;;5059293;28;20126;-76
2023/10/22 10:38:21;;;;;;;2.83;0.80;;;;;;;;;;5060014;28;20078;-76
2023/10/22 10:40:54;;;;;;;2.45;0.77;;;;;;;;;;5059724;28;20035;-75
2023/10/22 10:43:20;;;;;;;4.05;1.02;;;;;;;;;;5059036;28;20016;-77
2023/10/22 10:46:23;;;;;;;3.30;0.80;;;;;;;;;;5059236;28;20025;-77
2023/10/22 10:48:49;;;;;;;3.10;0.85;;;;;;;;;;5059364;28;20016;-76
2023/10/22 10:51:19;;;;;;;3.53;1.10;;;;;;;;;;5040929;28;20024;-77
2023/10/22 10:54:03;;;;;;;3.10;0.90;;;;;;;;;;5058899;28;20105;-77
2023/10/22 10:56:48;;;;;;;1.63;0.63;;;;;;;;;;5058723;28;20074;-76
2023/10/22 10:59:35;;;;;;;5.15;1.10;;;;;;;;;;5057509;28;20093;-77
2023/10/22 11:02:08;;;;;;;3.47;0.90;;;;;;;;;;5059265;28;20162;-77
2023/10/22 11:30:52;;;;;;;15.93;5.68;;;;;;;;;;4995369;28;20038;-77
2023/10/22 11:34:09;;;;;;;;;;;;;;;;;;;;;
2023/10/22 11:47:36;;;;;;;;;;;;;;;;;;;;;
2023/10/22 12:02:24;;;;;;;;;;;;;;;;;;;;;
2023/10/22 12:15:51;;;;;;;3.33;1.02;;;;;;;;;;4861048;29;20031;-77
2023/10/22 13:18:36;;;;;;;;;;;;;;;;;;;;;
2023/10/22 13:29:26;;;;;;;;;;;;;;;;;;;;;
2023/10/22 13:32:51;;;;;;;;;;;;;;;;;;;;;
2023/10/22 13:38:33;;;;;;;4.05;0.90;;;;;;;;;;4973561;28;20055;-78
2023/10/22 13:41:05;;;;;;;5.75;0.88;;;;;;;;;;5064945;28;20107;-79
2023/10/22 13:43:30;;;;;;;3.65;1.10;;;;;;;;;;5043651;28;20194;-78
2023/10/22 13:45:56;;;;;;;5.00;0.98;;;;;;;;;;5062740;28;20502;-78
2023/10/22 13:48:21;;;;;;;4.30;1.10;;;;;;;;;;5060818;28;20033;-79
2023/10/22 13:50:47;;;;;;;8.43;0.90;;;;;;;;;;5061656;28;20421;-77
2023/10/22 13:53:14;;;;;;;1.13;0.70;;;;;;;;;;5042635;28;20024;-78
2023/10/22 13:55:42;;;;;;;4.32;1.30;;;;;;;;;;5062351;28;20020;-78
2023/10/22 13:58:07;;;;;;;7.75;1.15;;;;;;;;;;5062766;28;20063;-78
2023/10/22 14:00:36;;;;;;;2.70;1.00;;;;;;;;;;5064438;28;20028;-78
2023/10/22 14:03:01;;;;;;;2.05;0.80;;;;;;;;;;5043668;28;20040;-78
2023/10/22 14:05:27;;;;;;;6.75;1.40;;;;;;;;;;5058428;28;20029;-77
2023/10/22 14:07:53;;;;;;;2.80;1.15;;;;;;;;;;5059585;28;20021;-79
2023/10/22 14:10:18;;;;;;;3.33;1.00;;;;;;;;;;5060996;28;20052;-77
2023/10/22 14:12:46;;;;;;;4.90;1.05;;;;;;;;;;5060796;28;20036;-78
2023/10/22 14:15:23;;;;;;;;;;;;;;;;;;;;;
2023/10/22 14:17:49;;;;;;;2.97;1.00;;;;;;;;;;5064344;28;20100;-77
2023/10/22 14:20:19;;;;;;;3.45;1.00;;;;;;;;;;5058438;28;20057;-77
2023/10/22 14:22:47;;;;;;;2.67;1.05;;;;;;;;;;5059000;28;20522;-80
2023/10/22 14:25:13;;;;;;;1.50;0.68;;;;;;;;;;5058398;28;20021;-78
2023/10/22 14:27:51;;;;;;;;;;;;;;;;;;;;;
2023/10/22 14:30:17;;;;;;;5.38;1.27;;;;;;;;;;5062683;28;20080;-79
2023/10/22 14:32:45;;;;;;;3.38;1.00;;;;;;;;;;5061916;28;20052;-77
2023/10/22 14:35:14;;;;;;;6.25;1.10;;;;;;;;;;5067516;28;20017;-78
2023/10/22 14:37:42;;;;;;;2.15;0.85;;;;;;;;;;5062157;28;20020;-77
2023/10/22 14:40:09;;;;;;;3.50;1.10;;;;;;;;;;5066586;28;20040;-79
2023/10/22 14:42:39;;;;;;;3.05;0.90;;;;;;;;;;5068290;28;20031;-79
2023/10/22 14:45:05;;;;;;;3.65;1.30;;;;;;;;;;5067546;28;20025;-78
2023/10/22 14:47:37;;;;;;;4.85;1.10;;;;;;;;;;5047609;28;20112;-77
2023/10/22 14:50:03;;;;;;;3.13;1.00;;;;;;;;;;5046263;28;20024;-78
2023/10/22 14:52:30;;;;;;;5.50;1.25;;;;;;;;;;5066866;28;20029;-77
2023/10/22 14:54:59;;;;;;;5.43;1.27;;;;;;;;;;5048508;28;20067;-77
2023/10/22 14:57:24;;;;;;;9.43;1.30;;;;;;;;;;5062697;28;20403;-78
2023/10/22 14:59:52;;;;;;;5.57;1.33;;;;;;;;;;5044801;28;20021;-77
2023/10/22 15:02:17;;;;;;;3.67;1.10;;;;;;;;;;5064097;28;20025;-78
2023/10/22 15:04:45;;;;;;;6.18;1.20;;;;;;;;;;5066467;28;20057;-77
2023/10/22 15:07:10;;;;;;;3.95;1.25;;;;;;;;;;5062975;28;20017;-80
2023/10/22 15:09:38;;;;;;;4.50;1.40;;;;;;;;;;5046526;28;20021;-78
2023/10/22 15:12:04;;;;;;;1.40;0.90;;;;;;;;;;5066872;28;20025;-79
2023/10/22 15:14:29;;;;;;;6.22;1.50;;;;;;;;;;5047906;28;20093;-79
2023/10/22 15:16:58;;;;;;;3.20;1.05;;;;;;;;;;5067037;28;20021;-78
2023/10/22 15:19:31;;;;;;;7.85;1.50;;;;;;;;;;5066848;28;20025;-79
2023/10/22 15:21:56;;;;;;;5.03;1.20;;;;;;;;;;5066605;28;20024;-78
2023/10/22 15:24:22;;;;;;;5.28;1.35;;;;;;;;;;5066895;28;20029;-79
2023/10/22 15:26:50;;;;;;;2.47;1.10;;;;;;;;;;5048132;28;20462;-78
2023/10/22 15:29:15;;;;;;;3.65;1.23;;;;;;;;;;5065296;28;20020;-79
2023/10/22 15:31:46;;;;;;;4.68;1.35;;;;;;;;;;5063460;28;20173;-77
2023/10/22 15:34:17;;;;;;;2.35;0.93;;;;;;;;;;5064551;28;20404;-78
2023/10/22 15:36:42;;;;;;;3.38;1.27;;;;;;;;;;5065008;28;20031;-79
2023/10/22 15:39:08;;;;;;;3.40;1.25;;;;;;;;;;5065283;28;20029;-79
2023/10/22 15:41:33;;;;;;;3.83;1.23;;;;;;;;;;5064058;28;20472;-78
2023/10/22 15:44:01;;;;;;;3.40;1.20;;;;;;;;;;5064571;28;20028;-79
2023/10/22 15:46:29;;;;;;;4.88;1.27;;;;;;;;;;5063081;28;20187;-77
2023/10/22 15:49:04;;;;;;;4.80;1.38;;;;;;;;;;5043440;28;20036;-78
2023/10/22 15:52:08;;;;;;;5.72;1.00;;;;;;;;;;5044442;28;20045;-78
2023/10/22 15:54:39;;;;;;;5.10;1.35;;;;;;;;;;4967768;28;20058;-78
2023/10/22 15:57:23;;;;;;;4.80;1.40;;;;;;;;;;5047319;28;20025;-79
2023/10/22 16:00:00;;;;;;;5.82;1.73;;;;;;;;;;5046558;28;20105;-78
2023/10/22 16:02:28;;;;;;;4.20;1.60;;;;;;;;;;5044381;28;20120;-78
2023/10/22 16:05:03;;;;;;;3.80;1.25;;;;;;;;;;5043478;28;20047;-78
2023/10/22 16:07:33;;;;;;;2.75;1.42;;;;;;;;;;5046420;28;20025;-78
2023/10/22 16:10:05;;;;;;;5.93;1.45;;;;;;;;;;5065831;28;20035;-79
2023/10/22 16:12:31;;;;;;;8.05;1.70;;;;;;;;;;5047823;28;20449;-78
2023/10/22 16:14:57;;;;;;;3.90;1.55;;;;;;;;;;5047660;28;20033;-79
2023/10/22 16:17:22;;;;;;;3.22;1.50;;;;;;;;;;5047610;28;20089;-78
2023/10/22 16:20:11;;;;;;;5.15;1.58;;;;;;;;;;5046878;28;20029;-79
2023/10/22 16:22:36;;;;;;;4.45;1.45;;;;;;;;;;5045347;28;20044;-78
2023/10/22 16:25:12;;;;;;;;;;;;;;;;;;;;;
2023/10/22 16:27:48;;;;;;;6.45;1.42;;;;;;;;;;5062597;28;20115;-78
2023/10/22 16:30:21;;;;;;;2.88;1.20;;;;;;;;;;5044043;28;20039;-79
2023/10/22 16:33:02;;;;;;;;;;;;;;;;;;;;;
2023/10/22 16:35:32;;;;;;;2.80;1.15;;;;;;;;;;5061974;28;20452;-78
2023/10/22 16:38:02;;;;;;;3.83;1.35;;;;;;;;;;5042762;28;20488;-78
2023/10/22 16:40:32;;;;;;;3.53;1.42;;;;;;;;;;5043494;28;20124;-78
2023/10/22 16:43:04;;;;;;;7.47;1.40;;;;;;;;;;5046100;28;20032;-78
2023/10/22 16:45:29;;;;;;;6.32;1.40;;;;;;;;;;5043885;28;20024;-77
2023/10/22 16:48:02;;;;;;;3.53;1.70;;;;;;;;;;5044408;28;20116;-78
2023/10/22 16:50:33;;;;;;;8.65;1.83;;;;;;;;;;5044720;28;20051;-77
2023/10/22 16:53:04;;;;;;;4.65;1.48;;;;;;;;;;5044861;28;20114;-79
2023/10/22 16:55:32;;;;;;;5.72;1.95;;;;;;;;;;5045355;28;20025;-78
2023/10/22 16:58:00;;;;;;;7.93;2.35;;;;;;;;;;5062887;28;20021;-78
2023/10/22 17:00:39;;;;;;;4.55;2.22;;;;;;;;;;5064501;28;20469;-78
2023/10/22 17:03:07;;;;;;;9.57;2.63;;;;;;;;;;5047158;28;20052;-78
2023/10/22 17:05:42;;;;;;;6.03;2.28;;;;;;;;;;5064530;28;20398;-79
2023/10/22 17:08:07;;;;;;;4.00;2.22;;;;;;;;;;5062314;28;20021;-77
2023/10/22 17:10:40;;;;;;;6.97;2.38;;;;;;;;;;5062026;28;20118;-78
2023/10/22 17:13:08;;;;;;;4.70;2.47;;;;;;;;;;5046228;28;20021;-79
2023/10/22 17:15:47;;;;;;;;;;;;;;;;;;;;;